Main page
METAR-TAF:

METAR-TAF

Airports :

Mykonos International Airport

Mykonos, Greece

latitude: 37-26-09N, longitude: 025-20-45E, elevation: 123 m

Current weather observation

The report was made 24 minutes ago, at 13:20 UTC
Wind 2 kt from variable directions
Temperature 21°C
Humidity 69%
Pressure 1013 hPa
Visibility 10 km or more
no clouds below 1500 m and no cumulonimbus

METAR: LGMK 201320Z VRB02KT CAVOK 21/15 Q1013

Time: 16:44 (13:44 UTC)

Forecast

The report was made 2 hours and 44 minutes ago, at 11:00 UTC
Forecast valid from 20 at 12 UTC to 20 at 21 UTC
Wind 15 kt from the South
Visibility 10 km or more
Few clouds at a height of 2000 ft
Temporary
from 20 at 12 UTC to 20 at 21 UTC
Few clouds at a height of 2000 ft
Broken clouds at a height of 4000 ft

TAF: LGMK 201100Z 2012/2021 19015KT 9999 FEW020 TEMPO 2012/2021 FEW020 BKN040

Weather observations and forecasts of more than 4000 airports (METAR and TAF reports).

The available stations are represented by yellow and red dots on the map.

Hover mouse over dot to see the name of the station.

Then click to see weather observations and forecasts.

To change the map : click on the green buttons with a black cross to zoom in, on the green button with a dash to zoom out, or on the green arrows for adjacent maps.


METAR-TAF: